地図

経路データ

SID SEASON NUMBER BASIN SUBBASIN NAME ISO_TIME NATURE LAT LON WMO_WIND WMO_PRES WMO_AGENCY TRACK_TYPE DIST2LAND LANDFALL IFLAG USA_AGENCY USA_ATCF_ID USA_LAT USA_LON USA_RECORD USA_STATUS USA_WIND USA_PRES USA_SSHS USA_R34_NE USA_R34_SE USA_R34_SW USA_R34_NW USA_R50_NE USA_R50_SE USA_R50_SW USA_R50_NW USA_R64_NE USA_R64_SE USA_R64_SW USA_R64_NW USA_POCI USA_ROCI USA_RMW USA_EYE TOKYO_LAT TOKYO_LON TOKYO_GRADE TOKYO_WIND TOKYO_PRES TOKYO_R50_DIR TOKYO_R50_LONG TOKYO_R50_SHORT TOKYO_R30_DIR TOKYO_R30_LONG TOKYO_R30_SHORT TOKYO_LAND CMA_LAT CMA_LON CMA_CAT CMA_WIND CMA_PRES HKO_LAT HKO_LON HKO_CAT HKO_WIND HKO_PRES NEWDELHI_LAT NEWDELHI_LON NEWDELHI_GRADE NEWDELHI_WIND NEWDELHI_PRES NEWDELHI_CI NEWDELHI_DP NEWDELHI_POCI REUNION_LAT REUNION_LON REUNION_TYPE REUNION_WIND REUNION_PRES REUNION_TNUM REUNION_CI REUNION_RMW REUNION_R34_NE REUNION_R34_SE REUNION_R34_SW REUNION_R34_NW REUNION_R50_NE REUNION_R50_SE REUNION_R50_SW REUNION_R50_NW REUNION_R64_NE REUNION_R64_SE REUNION_R64_SW REUNION_R64_NW BOM_LAT BOM_LON BOM_TYPE BOM_WIND BOM_PRES BOM_TNUM BOM_CI BOM_RMW BOM_R34_NE BOM_R34_SE BOM_R34_SW BOM_R34_NW BOM_R50_NE BOM_R50_SE BOM_R50_SW BOM_R50_NW BOM_R64_NE BOM_R64_SE BOM_R64_SW BOM_R64_NW BOM_ROCI BOM_POCI BOM_EYE BOM_POS_METHOD BOM_PRES_METHOD NADI_LAT NADI_LON NADI_CAT NADI_WIND NADI_PRES WELLINGTON_LAT WELLINGTON_LON WELLINGTON_WIND WELLINGTON_PRES DS824_LAT DS824_LON DS824_STAGE DS824_WIND DS824_PRES TD9636_LAT TD9636_LON TD9636_STAGE TD9636_WIND TD9636_PRES TD9635_LAT TD9635_LON TD9635_WIND TD9635_PRES TD9635_ROCI NEUMANN_LAT NEUMANN_LON NEUMANN_CLASS NEUMANN_WIND NEUMANN_PRES MLC_LAT MLC_LON MLC_CLASS MLC_WIND MLC_PRES USA_GUST BOM_GUST BOM_GUST_PER REUNION_GUST REUNION_GUST_PER USA_SEAHGT USA_SEARAD_NE USA_SEARAD_SE USA_SEARAD_SW USA_SEARAD_NW STORM_SPEED STORM_DIR
1968235N15135 1968 69 WP MM NOT_NAMED 1968-08-22 00:00:00 TS 14.8000 135.000 main 1068 1036 __O___________ -1 14.8000 135.000 0 1010 6 267
1968235N15135 1968 69 WP MM NOT_NAMED 1968-08-22 03:00:00 TS 14.7876 134.713 main 1036 1005 __P___________ -1 14.7876 134.713 0 1010 6 270
1968235N15135 1968 69 WP MM NOT_NAMED 1968-08-22 06:00:00 TS 14.8000 134.400 main 1005 974 __O___________ -1 14.8000 134.400 0 1010 7 277
1968235N15135 1968 69 WP MM NOT_NAMED 1968-08-22 09:00:00 TS 14.8624 134.037 main 967 930 __P___________ -1 14.8624 134.037 0 1009 8 284
1968235N15135 1968 69 WP MM NOT_NAMED 1968-08-22 12:00:00 TS 15.0000 133.600 main 930 887 __O___________ -1 15.0000 133.600 0 1008 10 291
1968235N15135 1968 69 WP MM NOT_NAMED 1968-08-22 15:00:00 TS 15.2124 133.087 main 887 841 __P___________ -1 15.2124 133.087 0 1008 12 295
1968235N15135 1968 69 WP MM NOT_NAMED 1968-08-22 18:00:00 TS 15.5000 132.500 main 841 794 __O___________ -1 15.5000 132.500 0 1008 13 295
1968235N15135 1968 69 WP MM NOT_NAMED 1968-08-22 21:00:00 TS 15.7675 131.857 main 799 760 __P___________ -1 15.7675 131.857 0 1008 14 299
1968235N15135 1968 69 WP MM NOT_NAMED 1968-08-23 00:00:00 TS 16.2000 131.200 main 760 744 __O___________ -1 16.2000 131.200 0 1008 18 314
1968235N15135 1968 69 WP MM NOT_NAMED 1968-08-23 03:00:00 TS 16.9926 130.549 main 740 736 __P___________ -1 16.9926 130.549 0 1007 20 324
1968235N15135 1968 69 WP MM NOT_NAMED 1968-08-23 06:00:00 TS 17.8000 130.000 main 741 736 __O___________ -1 17.8000 130.000 0 1006 15 325
1968235N15135 1968 69 WP MM NOT_NAMED 1968-08-23 09:00:00 TS 18.2297 129.639 main 735 735 __P___________ -1 18.2297 129.639 0 1006 10 325
1968235N15135 1968 69 WP MM NOT_NAMED 1968-08-23 12:00:00 TS 18.6000 129.400 main 749 721 __O___________ -1 18.6000 129.400 0 1006 11 333
1968235N15135 1968 69 WP MM NOT_NAMED 1968-08-23 15:00:00 TS 19.2000 129.125 main 721 715 __P___________ -1 19.2000 129.125 0 1005 13 343
1968235N15135 1968 69 WP MM NOT_NAMED 1968-08-23 18:00:00 TS 19.8000 129.000 main 721 721 __O___________ -1 19.8000 129.000 1 23 1004 10 0
1968235N15135 1968 69 WP MM NOT_NAMED 1968-08-23 21:00:00 TS 20.2373 129.102 main 741 741 __P___________ -1 20.2373 129.102 1 23 1003 9 25
1968235N15135 1968 69 WP MM NOT_NAMED 1968-08-24 00:00:00 TS 20.6000 129.400 main 783 783 __O___________ -1 20.6000 129.400 1 23 1002 10 44
1968235N15135 1968 69 WP MM NOT_NAMED 1968-08-24 03:00:00 TS 20.9201 129.805 main 833 833 __P___________ -1 20.9201 129.805 1 23 1002 11 50
1968235N15135 1968 69 WP MM NOT_NAMED 1968-08-24 06:00:00 TS 21.3000 130.300 main 897 897 __O___________ -1 21.3000 130.300 1 23 1002 14 47
1968235N15135 1968 69 WP MM NOT_NAMED 1968-08-24 09:00:00 TS 21.8404 130.867 main 967 951 __P___________ -1 21.8404 130.867 1 23 1001 15 38
1968235N15135 1968 69 WP MM NOT_NAMED 1968-08-24 12:00:00 TS 22.5000 131.300 main 951 874 __O___________ -1 22.5000 131.300 1 23 1000 15 21
1968235N15135 1968 69 WP MM NOT_NAMED 1968-08-24 15:00:00 TS 23.2120 131.450 main 873 783 __P___________ -1 23.2120 131.450 1 23 1000 15 0
1968235N15135 1968 69 WP MM NOT_NAMED 1968-08-24 18:00:00 TS 24.0000 131.300 main 783 692 __O___________ -1 24.0000 131.300 1 23 1000 17 342
1968235N15135 1968 69 WP MM NOT_NAMED 1968-08-24 21:00:00 TS 24.8383 130.877 main 692 592 __P___________ -1 24.8383 130.877 1 1000 19 332
1968235N15135 1968 69 WP MM NOT_NAMED 1968-08-25 00:00:00 TS 25.7000 130.300 main 592 __O___________ -1 25.7000 130.300 0 1000 20 329

デジタル台風データ・検索

IBTrACS Databaseについて

本データベースは、米国NOAAが公開する1842年以降の世界の熱帯低気圧のベストトラックデータアーカイブInternational Best Track Archive for Climate Stewardship (IBTrACS)を、ウェブで閲覧しやすい形式に変換したものです。

最終更新日:2021-11-26